Time;durP1;ratioP1;P1;durP2;ratioP2;P2;SDS_P1;SDS_P2;PMS_P1;PMS_P2;Temp;Humidity;BMP_temperature;BMP_pressure;BME280_temperature;BME280_humidity;BME280_pressure;Samples;Min_cycle;Max_cycle;Signal;HPM_P1;HPM_P2
2023/01/15 00:01:30;;;;;;;1999.90;999.90;;;;;;;1.48;100.00;98083.94;4973123;28;20034;-77
2023/01/15 00:03:58;;;;;;;1999.90;999.90;;;;;;;1.48;100.00;98079.38;4959669;28;20110;-79
2023/01/15 00:06:24;;;;;;;1999.90;999.90;;;;;;;1.45;100.00;98081.72;4935140;29;20038;-79
2023/01/15 00:08:50;;;;;;;1999.90;999.90;;;;;;;1.42;100.00;98069.53;4933604;29;20048;-80
2023/01/15 00:11:16;;;;;;;1999.90;999.90;;;;;;;1.40;100.00;98073.53;4934777;29;20027;-80
2023/01/15 00:13:42;;;;;;;1999.90;999.90;;;;;;;1.29;100.00;98072.44;4935722;29;20107;-79
2023/01/15 00:16:13;;;;;;;1999.90;999.90;;;;;;;1.18;100.00;98061.69;4934609;29;20039;-80
2023/01/15 00:18:39;;;;;;;1999.90;999.90;;;;;;;1.17;100.00;98062.72;4934448;29;20031;-82
2023/01/15 00:21:07;;;;;;;1999.90;999.90;;;;;;;1.18;100.00;98046.34;4938339;29;20091;-79
2023/01/15 00:29:03;;;;;;;1999.90;999.90;;;;;;;1.21;100.00;98053.13;4934812;29;20042;-80
2023/01/15 00:31:30;;;;;;;1999.90;999.90;;;;;;;1.20;100.00;98059.56;4933060;29;20039;-81
2023/01/15 00:33:56;;;;;;;1999.90;999.90;;;;;;;1.16;100.00;98047.63;4934177;29;20028;-81
2023/01/15 00:36:21;;;;;;;1999.90;999.90;;;;;;;1.14;100.00;98041.63;4934374;29;20035;-79
2023/01/15 00:38:47;;;;;;;1999.90;999.90;;;;;;;1.21;100.00;98045.06;4934130;29;20092;-80
2023/01/15 00:41:12;;;;;;;1999.90;999.90;;;;;;;1.11;100.00;98034.03;4933087;29;20032;-82
2023/01/15 00:43:37;;;;;;;1999.90;999.90;;;;;;;1.14;100.00;98034.38;4937395;29;20062;-79
2023/01/15 00:46:04;;;;;;;1999.90;999.90;;;;;;;1.06;100.00;98027.50;4935248;29;20031;-84
2023/01/15 00:48:30;;;;;;;1999.90;999.90;;;;;;;1.20;100.00;98025.38;4934535;29;20079;-82
2023/01/15 00:50:55;;;;;;;1999.90;999.90;;;;;;;1.16;100.00;98028.78;4936196;29;20023;-83
2023/01/15 00:53:21;;;;;;;1999.90;999.90;;;;;;;1.22;100.00;98033.22;4935875;29;20493;-82
2023/01/15 00:55:46;;;;;;;1999.90;999.90;;;;;;;1.25;100.00;98033.59;4934926;29;20464;-83
2023/01/15 00:58:11;;;;;;;1999.90;999.90;;;;;;;1.24;100.00;98021.16;4934949;29;20046;-81
2023/01/15 01:00:36;;;;;;;1999.90;999.90;;;;;;;1.29;100.00;98023.97;4935210;29;20024;-83
2023/01/15 01:03:02;;;;;;;1999.90;999.90;;;;;;;1.36;100.00;98038.16;4935016;29;20039;-83
2023/01/15 01:05:27;;;;;;;1999.90;999.90;;;;;;;1.33;100.00;98029.72;4934783;29;20429;-81
2023/01/15 01:07:53;;;;;;;1999.90;999.90;;;;;;;1.38;100.00;98029.84;4935553;29;20119;-79
2023/01/15 01:10:18;;;;;;;1999.90;999.90;;;;;;;1.29;100.00;98025.84;4934537;29;20032;-81
2023/01/15 01:12:44;;;;;;;1999.90;999.90;;;;;;;1.27;100.00;98027.94;4934495;29;20027;-79
2023/01/15 01:15:10;;;;;;;1999.90;999.90;;;;;;;1.31;100.00;98018.34;4935577;29;20483;-80
2023/01/15 01:17:38;;;;;;;1999.90;999.90;;;;;;;1.33;100.00;98022.44;4937254;29;20063;-78
2023/01/15 01:20:04;;;;;;;1999.90;999.90;;;;;;;1.35;100.00;98011.41;4934540;29;20102;-82
2023/01/15 01:22:32;;;;;;;1999.90;999.90;;;;;;;1.37;100.00;98002.06;4934184;29;20533;-81
2023/01/15 01:24:58;;;;;;;1999.90;999.90;;;;;;;1.38;100.00;98008.28;4934741;29;20059;-81
2023/01/15 01:27:23;;;;;;;1999.90;999.90;;;;;;;1.29;100.00;97998.91;4934682;29;20040;-81
2023/01/15 01:29:49;;;;;;;1999.90;999.90;;;;;;;1.22;100.00;97992.84;4934345;29;20043;-80
2023/01/15 01:32:14;;;;;;;1999.90;999.90;;;;;;;1.21;100.00;97992.00;4934118;29;20481;-81
2023/01/15 01:34:39;;;;;;;1999.90;999.90;;;;;;;1.27;100.00;97987.53;4933865;29;20024;-79
2023/01/15 01:37:05;;;;;;;1999.90;999.90;;;;;;;1.17;100.00;97973.84;4933975;29;20078;-78
2023/01/15 01:39:30;;;;;;;1999.90;999.90;;;;;;;1.14;100.00;97971.63;4934224;29;20036;-77
2023/01/15 01:41:55;;;;;;;1999.90;999.90;;;;;;;1.03;100.00;97974.06;4933985;29;20031;-78
2023/01/15 01:44:36;;;;;;;1999.90;999.90;;;;;;;1.14;100.00;97979.69;4934181;29;20043;-80
2023/01/15 01:47:08;;;;;;;1999.90;999.90;;;;;;;1.15;100.00;97971.41;4935104;29;20043;-82
2023/01/15 01:49:37;;;;;;;1999.90;999.90;;;;;;;1.16;100.00;97972.22;4936693;29;20027;-82
2023/01/15 01:52:07;;;;;;;1999.90;999.90;;;;;;;1.00;100.00;97961.06;4935420;29;20537;-85
2023/01/15 01:54:34;;;;;;;1999.90;999.90;;;;;;;1.03;100.00;97957.91;4937799;29;20477;-84
2023/01/15 01:57:00;;;;;;;1999.90;999.90;;;;;;;0.99;100.00;97954.06;4939382;29;20815;-84
2023/01/15 01:59:26;;;;;;;1999.90;999.90;;;;;;;0.97;100.00;97952.69;4938176;29;20482;-83
2023/01/15 02:01:52;;;;;;;1999.90;999.90;;;;;;;0.89;100.00;97953.00;4938405;29;20078;-82
2023/01/15 02:04:21;;;;;;;1999.90;999.90;;;;;;;0.90;100.00;97952.78;4939310;29;20123;-82
2023/01/15 02:06:46;;;;;;;1999.90;999.90;;;;;;;0.99;100.00;97948.69;4938861;29;20023;-85
2023/01/15 02:09:12;;;;;;;1999.90;999.90;;;;;;;0.99;100.00;97940.63;4938932;29;20034;-85
2023/01/15 02:11:37;;;;;;;1999.90;999.90;;;;;;;0.97;100.00;97934.63;4939308;29;20028;-84
2023/01/15 02:14:19;;;;;;;1999.90;999.90;;;;;;;1.03;100.00;97944.44;4940893;29;20088;-84
2023/01/15 02:16:52;;;;;;;1999.90;999.90;;;;;;;1.12;100.00;97944.94;4938918;29;20114;-79
2023/01/15 02:19:35;;;;;;;1999.90;999.90;;;;;;;1.17;100.00;97938.81;4936643;29;20389;-78
2023/01/15 02:22:48;;;;;;;1999.90;999.90;;;;;;;1.16;100.00;97932.63;4936854;29;20043;-77
2023/01/15 02:25:21;;;;;;;1999.90;999.90;;;;;;;1.09;100.00;97918.47;4864191;29;20048;-77
2023/01/15 02:27:54;;;;;;;1999.90;999.90;;;;;;;1.10;100.00;97908.53;4936476;29;20126;-77
2023/01/15 02:30:47;;;;;;;1999.90;999.90;;;;;;;1.07;100.00;97921.41;4936738;29;20042;-80
2023/01/15 02:33:19;;;;;;;1999.90;999.90;;;;;;;0.92;100.00;97923.75;4935275;29;20076;-79
2023/01/15 02:35:50;;;;;;;1999.90;999.90;;;;;;;0.99;100.00;97919.06;4940339;29;20028;-80
2023/01/15 02:38:21;;;;;;;1999.90;999.90;;;;;;;0.93;100.00;97906.56;4936493;29;20032;-79
2023/01/15 02:40:49;;;;;;;1999.90;999.90;;;;;;;0.88;100.00;97909.09;4936164;29;20071;-76
2023/01/15 02:43:16;;;;;;;1999.90;999.90;;;;;;;0.74;100.00;97907.72;4936641;29;20039;-81
2023/01/15 02:45:46;;;;;;;1999.90;999.90;;;;;;;0.61;100.00;97907.94;4935875;29;20039;-78
2023/01/15 02:48:15;;;;;;;1999.90;999.90;;;;;;;0.54;100.00;97899.16;4935762;29;20032;-79
2023/01/15 02:50:44;;;;;;;1999.90;999.90;;;;;;;0.49;100.00;97897.19;4937612;28;20030;-81
2023/01/15 02:53:17;;;;;;;1999.90;999.90;;;;;;;0.46;100.00;97908.41;4954755;28;20051;-78
2023/01/15 02:55:47;;;;;;;1999.90;999.90;;;;;;;0.37;100.00;97892.84;4954937;28;20039;-77
2023/01/15 02:58:16;;;;;;;1999.90;999.90;;;;;;;0.49;100.00;97904.44;4955415;28;20026;-77
2023/01/15 03:00:45;;;;;;;1999.90;999.90;;;;;;;0.41;100.00;97905.56;4955222;28;20034;-80
2023/01/15 03:03:41;;;;;;;1999.90;999.90;;;;;;;0.40;100.00;97895.06;4955219;28;20023;-81
2023/01/15 03:06:12;;;;;;;1999.90;999.90;;;;;;;0.47;100.00;97898.47;4958405;28;20039;-78
2023/01/15 03:08:38;;;;;;;1999.90;999.90;;;;;;;0.48;100.00;97894.72;4956315;28;20027;-80
2023/01/15 03:11:13;;;;;;;1999.90;999.90;;;;;;;0.42;100.00;97890.25;4955057;28;20035;-78
2023/01/15 03:13:38;;;;;;;1999.90;999.90;;;;;;;0.45;100.00;97881.72;4955402;28;20156;-80
2023/01/15 03:16:33;;;;;;;1999.90;999.90;;;;;;;0.52;100.00;97887.81;4937780;28;20051;-78
2023/01/15 03:19:06;;;;;;;1999.90;999.90;;;;;;;0.50;100.00;97889.94;4945947;28;20054;-78
2023/01/15 03:21:56;;;;;;;1999.90;999.90;;;;;;;0.45;100.00;97889.78;4954445;28;20016;-79
2023/01/15 03:24:38;;;;;;;1999.90;999.90;;;;;;;0.47;100.00;97887.72;4945251;28;20039;-78
2023/01/15 03:27:04;;;;;;;1999.90;999.90;;;;;;;0.48;100.00;97886.63;4954677;28;20027;-80
2023/01/15 03:29:35;;;;;;;1999.90;999.90;;;;;;;0.38;100.00;97878.31;4954780;28;20051;-79
2023/01/15 03:32:00;;;;;;;1999.90;999.90;;;;;;;0.26;100.00;97875.63;4954422;28;20019;-78
2023/01/15 03:34:35;;;;;;;1999.90;999.90;;;;;;;0.23;100.00;97859.13;4933422;29;20082;-77
2023/01/15 03:37:01;;;;;;;1999.90;999.90;;;;;;;0.24;100.00;97858.09;4943202;29;20444;-78
2023/01/15 03:39:27;;;;;;;1999.90;999.90;;;;;;;0.30;100.00;97843.72;4953980;29;20139;-78
2023/01/15 03:42:15;;;;;;;1999.90;999.90;;;;;;;0.33;100.00;97837.88;4938631;29;20057;-78
2023/01/15 03:45:00;;;;;;;1999.90;999.90;;;;;;;0.49;100.00;97842.56;4935909;29;20122;-78
2023/01/15 03:47:45;;;;;;;1999.90;999.90;;;;;;;0.49;100.00;97837.16;4954716;28;20031;-77
2023/01/15 03:50:17;;;;;;;1999.90;999.90;;;;;;;0.43;100.00;97830.88;4956222;28;20031;-79
2023/01/15 03:52:50;;;;;;;1999.90;999.90;;;;;;;0.44;100.00;97834.34;4955018;28;20086;-76
2023/01/15 03:55:24;;;;;;;1999.90;999.90;;;;;;;0.51;100.00;97826.97;4954159;29;20135;-76
2023/01/15 03:58:10;;;;;;;1999.90;999.90;;;;;;;0.56;100.00;97832.50;4953218;29;20035;-75
2023/01/15 04:00:49;;;;;;;1999.90;999.90;;;;;;;0.50;100.00;97828.06;4951983;29;20138;-76
2023/01/15 04:03:16;;;;;;;1999.90;999.90;;;;;;;0.59;100.00;97821.28;4953509;29;20058;-77
2023/01/15 04:05:42;;;;;;;1999.90;999.90;;;;;;;0.58;100.00;97806.16;4953528;29;20031;-77
2023/01/15 04:08:09;;;;;;;1999.90;999.90;;;;;;;0.64;100.00;97813.28;4953772;29;20082;-76
2023/01/15 04:10:34;;;;;;;1999.90;999.90;;;;;;;0.60;100.00;97819.38;4953278;29;20439;-75
2023/01/15 04:12:59;;;;;;;1999.90;999.90;;;;;;;0.50;100.00;97811.91;4953281;29;20024;-76
2023/01/15 04:15:25;;;;;;;1999.90;999.90;;;;;;;0.52;100.00;97810.63;4952970;28;20023;-75
2023/01/15 04:17:50;;;;;;;1999.90;999.90;;;;;;;0.57;100.00;97812.59;4952552;29;20037;-75
2023/01/15 04:20:15;;;;;;;1999.90;999.90;;;;;;;0.58;100.00;97813.41;4952998;29;20031;-78
2023/01/15 04:22:41;;;;;;;1999.90;999.90;;;;;;;0.54;100.00;97811.19;4952903;29;20039;-77
2023/01/15 04:25:07;;;;;;;1999.90;999.90;;;;;;;0.61;100.00;97818.31;4952981;29;20086;-75
2023/01/15 04:27:32;;;;;;;1999.90;999.90;;;;;;;0.60;100.00;97814.00;4952742;29;20126;-76
2023/01/15 04:29:57;;;;;;;1999.90;999.90;;;;;;;0.65;100.00;97811.44;4942510;29;20024;-76
2023/01/15 04:32:23;;;;;;;1999.90;999.90;;;;;;;0.75;100.00;97804.38;4933541;29;20102;-75
2023/01/15 04:34:48;;;;;;;1999.90;999.90;;;;;;;0.82;100.00;97806.94;4933540;29;20556;-74
2023/01/15 04:37:16;;;;;;;1999.90;999.90;;;;;;;0.80;100.00;97809.88;4933695;29;20031;-75
2023/01/15 04:39:41;;;;;;;1999.90;999.90;;;;;;;0.80;100.00;97806.38;4933596;29;20020;-77
2023/01/15 04:44:55;;;;;;;1999.90;999.90;;;;;;;0.77;100.00;97799.59;4958028;28;20401;-78
2023/01/15 04:47:21;;;;;;;1999.90;999.90;;;;;;;0.83;100.00;97801.34;4952995;28;20039;-74
2023/01/15 04:49:46;;;;;;;1999.90;999.90;;;;;;;0.90;100.00;97793.13;4936106;28;20035;-75
2023/01/15 04:52:11;;;;;;;1999.90;999.90;;;;;;;0.88;100.00;97779.06;4952077;28;20159;-75
2023/01/15 04:54:37;;;;;;;1999.90;999.90;;;;;;;0.86;100.00;97781.19;4955659;28;20038;-76
2023/01/15 04:57:03;;;;;;;1999.90;999.90;;;;;;;0.81;100.00;97786.50;4953888;28;20019;-76
2023/01/15 04:59:28;;;;;;;1999.90;999.90;;;;;;;0.87;100.00;97775.59;4952601;28;20030;-75
2023/01/15 05:01:54;;;;;;;1999.90;999.90;;;;;;;0.81;100.00;97771.16;4952327;28;20477;-74
2023/01/15 05:04:19;;;;;;;1999.90;999.90;;;;;;;0.82;100.00;97783.53;4952362;28;20027;-74
2023/01/15 05:06:44;;;;;;;1999.90;999.90;;;;;;;0.75;100.00;97771.28;4952325;28;20065;-74
2023/01/15 05:09:10;;;;;;;1999.90;999.90;;;;;;;0.75;100.00;97772.06;4952796;28;20110;-75
2023/01/15 05:11:37;;;;;;;1999.90;999.90;;;;;;;0.81;100.00;97770.34;4953642;28;20137;-75
2023/01/15 05:14:03;;;;;;;1999.90;999.90;;;;;;;0.75;100.00;97769.38;4956000;28;20027;-74
2023/01/15 05:16:29;;;;;;;1999.90;999.90;;;;;;;0.77;100.00;97763.78;4955626;28;20068;-75
2023/01/15 05:18:58;;;;;;;1999.90;999.90;;;;;;;0.82;100.00;97762.00;4956158;28;20031;-76
2023/01/15 05:21:25;;;;;;;1999.90;999.90;;;;;;;0.95;100.00;97758.22;4953083;28;20154;-77
2023/01/15 05:23:54;;;;;;;1999.90;999.90;;;;;;;0.92;100.00;97754.16;4952866;28;20074;-76
2023/01/15 05:26:20;;;;;;;1999.90;999.90;;;;;;;0.96;100.00;97752.63;4955142;28;20485;-77
2023/01/15 05:28:46;;;;;;;1999.90;999.90;;;;;;;0.93;100.00;97750.41;4956027;28;20038;-74
2023/01/15 05:31:14;;;;;;;1999.90;999.90;;;;;;;0.79;100.00;97756.28;4956591;28;20396;-74
2023/01/15 05:33:40;;;;;;;1999.90;999.90;;;;;;;0.79;100.00;97757.09;4956292;28;20011;-74
2023/01/15 05:36:09;;;;;;;1999.90;999.90;;;;;;;0.72;100.00;97747.53;4955540;28;20040;-74
2023/01/15 05:38:34;;;;;;;1999.90;999.90;;;;;;;0.72;100.00;97755.63;4956369;28;20027;-74
2023/01/15 05:41:47;;;;;;;1999.90;999.90;;;;;;;0.85;100.00;97741.88;4955872;28;20031;-76
2023/01/15 05:43:54;;;;;;;1999.90;999.90;;;;;;;1.00;100.00;97744.88;4957175;28;20035;-76
2023/01/15 05:46:19;;;;;;;1999.90;999.90;;;;;;;1.06;100.00;97742.06;4958251;28;20050;-75
2023/01/15 05:48:45;;;;;;;1999.90;999.90;;;;;;;1.14;100.00;97742.72;4959109;28;20027;-74
2023/01/15 05:51:10;;;;;;;1999.90;999.90;;;;;;;1.21;100.00;97733.44;4957918;28;20033;-75
2023/01/15 05:53:35;;;;;;;1999.90;999.90;;;;;;;1.23;100.00;97735.88;4958520;28;20134;-77
2023/01/15 05:56:01;;;;;;;1999.90;999.90;;;;;;;1.30;100.00;97734.69;4957596;28;20436;-75
2023/01/15 05:58:26;;;;;;;1999.90;999.90;;;;;;;1.30;100.00;97734.69;4957583;28;20118;-75
2023/01/15 06:00:53;;;;;;;1999.90;999.90;;;;;;;1.29;100.00;97729.53;4956435;28;20030;-80
2023/01/15 06:03:20;;;;;;;1999.90;999.90;;;;;;;1.32;100.00;97731.72;4958029;28;20063;-77
2023/01/15 06:05:52;;;;;;;1999.90;999.90;;;;;;;1.37;100.00;97723.75;4959243;28;20110;-78
2023/01/15 06:08:17;;;;;;;1999.90;999.90;;;;;;;1.32;100.00;97729.03;4961429;28;20507;-74
2023/01/15 06:10:46;;;;;;;1999.90;999.90;;;;;;;1.38;100.00;97717.31;4971683;28;20023;-75
2023/01/15 06:13:13;;;;;;;1999.90;999.90;;;;;;;1.38;100.00;97722.72;4951106;28;20087;-74
2023/01/15 06:15:38;;;;;;;1999.90;999.90;;;;;;;1.41;100.00;97717.63;4936438;29;20030;-74
2023/01/15 06:18:04;;;;;;;1999.90;999.90;;;;;;;1.39;100.00;97718.94;4947921;29;20027;-75
2023/01/15 06:20:29;;;;;;;1999.90;999.90;;;;;;;1.33;100.00;97714.50;4954938;29;20390;-75
2023/01/15 06:22:54;;;;;;;1999.90;999.90;;;;;;;1.36;100.00;97722.94;4954563;29;20106;-76
2023/01/15 06:25:20;;;;;;;1999.90;999.90;;;;;;;1.33;100.00;97704.56;4955019;29;20031;-75
2023/01/15 06:27:47;;;;;;;1999.90;999.90;;;;;;;1.33;100.00;97704.56;4954621;29;20063;-75
2023/01/15 06:30:13;;;;;;;1999.90;999.90;;;;;;;1.27;100.00;97710.91;4954953;29;20122;-75
2023/01/15 06:32:38;;;;;;;1999.90;999.90;;;;;;;1.22;100.00;97710.03;4954905;29;20106;-77
2023/01/15 06:35:04;;;;;;;1999.90;999.90;;;;;;;1.27;100.00;97713.63;4955034;29;20276;-76
2023/01/15 06:37:30;;;;;;;1999.90;999.90;;;;;;;1.32;100.00;97710.19;4954930;29;20056;-76
2023/01/15 06:39:55;;;;;;;1999.90;999.90;;;;;;;1.38;100.00;97714.63;4955556;28;20167;-76
2023/01/15 06:47:49;;;;;;;1999.90;999.90;;;;;;;1.46;100.00;97698.88;4954811;29;20130;-74
2023/01/15 06:50:15;;;;;;;1999.90;999.90;;;;;;;1.53;100.00;97691.44;4954330;29;20035;-75
2023/01/15 06:52:40;;;;;;;1999.90;999.90;;;;;;;1.59;100.00;97695.88;4955530;28;20416;-74
2023/01/15 06:55:06;;;;;;;1999.90;999.90;;;;;;;1.67;100.00;97702.72;4959465;29;20067;-74
2023/01/15 06:57:32;;;;;;;1999.90;999.90;;;;;;;1.74;100.00;97699.84;4956897;28;20035;-77
2023/01/15 06:59:57;;;;;;;1999.90;999.90;;;;;;;1.75;100.00;97698.81;4954573;28;20042;-74
2023/01/15 07:02:23;;;;;;;1999.90;999.90;;;;;;;1.80;100.00;97705.09;4938042;29;20054;-74
2023/01/15 07:04:48;;;;;;;1999.90;999.90;;;;;;;1.75;100.00;97698.81;4954541;29;20503;-74
2023/01/15 07:07:15;;;;;;;1999.90;999.90;;;;;;;1.86;100.00;97701.41;4954111;29;20484;-76
2023/01/15 07:09:40;;;;;;;1999.90;999.90;;;;;;;1.98;100.00;97698.59;4954024;29;20023;-74
2023/01/15 07:12:06;;;;;;;1999.90;999.90;;;;;;;1.94;100.00;97692.88;4954154;29;20106;-74
2023/01/15 07:14:31;;;;;;;1999.90;999.90;;;;;;;1.97;100.00;97703.19;4954616;29;20057;-74
2023/01/15 07:16:58;;;;;;;1999.90;999.90;;;;;;;2.00;100.00;97705.41;4954222;29;20090;-75
2023/01/15 07:19:23;;;;;;;1999.90;999.90;;;;;;;2.07;100.00;97711.44;4954056;29;20380;-76
2023/01/15 07:21:49;;;;;;;1999.90;999.90;;;;;;;2.12;100.00;97694.53;4954333;29;20024;-74
2023/01/15 07:24:15;;;;;;;1999.90;999.90;;;;;;;2.14;100.00;97695.91;4953977;29;20412;-74
2023/01/15 07:26:41;;;;;;;1999.90;999.90;;;;;;;2.00;100.00;97693.81;4953875;29;20039;-74
2023/01/15 07:29:07;;;;;;;1999.90;999.90;;;;;;;2.01;100.00;97693.53;4954250;29;20090;-76
2023/01/15 07:31:32;;;;;;;1999.90;999.90;;;;;;;2.03;100.00;97694.13;4953919;29;20035;-74
2023/01/15 07:33:58;;;;;;;1999.90;999.90;;;;;;;1.94;100.00;97698.28;4936666;29;20062;-75
2023/01/15 07:36:24;;;;;;;1999.90;999.90;;;;;;;2.01;100.00;97690.03;4954069;29;20031;-75
2023/01/15 07:38:49;;;;;;;1999.90;999.90;;;;;;;2.14;100.00;97698.59;4953705;29;20027;-74
2023/01/15 07:49:45;;;;;;;1999.90;999.90;;;;;;;2.29;100.00;97689.09;4954076;29;20038;-75
2023/01/15 07:52:18;;;;;;;1999.90;999.90;;;;;;;2.25;100.00;97696.88;4954013;28;20079;-76
2023/01/15 07:54:46;;;;;;;1999.90;999.90;;;;;;;2.35;100.00;97705.09;4953667;29;20027;-77
2023/01/15 07:57:13;;;;;;;1999.90;999.90;;;;;;;2.35;100.00;97690.78;4952718;29;20027;-78
2023/01/15 07:59:39;;;;;;;1999.90;999.90;;;;;;;2.44;100.00;97681.19;4936441;28;21367;-77
2023/01/15 08:02:05;;;;;;;1999.90;999.90;;;;;;;2.42;100.00;97689.53;4972346;28;20019;-77
2023/01/15 08:04:30;;;;;;;1999.90;999.90;;;;;;;2.41;100.00;97687.88;4956634;28;20046;-75
2023/01/15 08:06:59;;;;;;;1999.90;999.90;;;;;;;2.41;100.00;97684.41;4953208;29;20038;-76
2023/01/15 08:09:24;;;;;;;1999.90;999.90;;;;;;;2.44;100.00;97698.22;4953183;29;20118;-75
2023/01/15 08:17:18;;;;;;;1999.90;999.90;;;;;;;2.44;100.00;97673.09;4933739;29;20034;-77
2023/01/15 08:19:43;;;;;;;1999.90;999.90;;;;;;;2.53;100.00;97667.03;4916853;29;20118;-76
2023/01/15 08:22:09;;;;;;;1999.90;999.90;;;;;;;2.63;100.00;97671.72;4933838;29;20023;-77
2023/01/15 08:24:34;;;;;;;1999.90;999.90;;;;;;;2.66;100.00;97671.22;4933574;29;20028;-75
2023/01/15 08:27:00;;;;;;;1999.90;999.90;;;;;;;2.72;100.00;97674.78;4933610;29;20028;-77
2023/01/15 08:29:26;;;;;;;1999.90;999.90;;;;;;;2.79;100.00;97665.41;4933988;29;20038;-75
2023/01/15 08:31:51;;;;;;;1999.90;999.90;;;;;;;2.68;100.00;97658.28;4935980;29;20036;-77
2023/01/15 08:34:18;;;;;;;1999.90;999.90;;;;;;;2.71;100.00;97646.97;4934246;29;20058;-77
2023/01/15 08:36:43;;;;;;;1999.90;999.90;;;;;;;2.78;100.00;97653.00;4933763;29;20063;-76
2023/01/15 08:39:09;;;;;;;1999.90;999.90;;;;;;;2.74;100.00;97648.34;4933432;29;20066;-75
2023/01/15 08:41:34;;;;;;;1999.90;999.90;;;;;;;2.81;100.00;97644.41;4933438;29;20067;-77
2023/01/15 08:44:00;;;;;;;1999.90;999.90;;;;;;;2.90;100.00;97648.28;4958408;28;20019;-75
2023/01/15 08:46:25;;;;;;;1999.90;999.90;;;;;;;2.88;100.00;97647.69;4959764;28;20494;-75
2023/01/15 08:48:52;;;;;;;1999.90;999.90;;;;;;;2.90;100.00;97645.56;4962326;28;20131;-77
2023/01/15 08:51:18;;;;;;;1999.90;999.90;;;;;;;2.91;100.00;97632.88;4962553;28;20031;-75
2023/01/15 08:53:44;;;;;;;1999.90;999.90;;;;;;;2.89;100.00;97643.94;4961228;28;20436;-74
2023/01/15 08:56:17;;;;;;;1999.90;999.90;;;;;;;2.98;100.00;97646.97;4961143;28;20037;-75
2023/01/15 08:58:42;;;;;;;1999.90;999.90;;;;;;;3.01;100.00;97636.50;4960542;28;20105;-76
2023/01/15 09:01:10;;;;;;;1999.90;999.90;;;;;;;3.09;100.00;97633.34;4964753;28;20115;-76
2023/01/15 09:03:35;;;;;;;1999.90;999.90;;;;;;;3.19;100.00;97635.34;4964687;28;20197;-79
2023/01/15 09:06:02;;;;;;;1999.90;999.90;;;;;;;3.27;100.00;97636.75;4967316;28;20087;-78
2023/01/15 09:08:28;;;;;;;1999.90;999.90;;;;;;;3.32;100.00;97637.59;4955338;28;20034;-77
2023/01/15 09:11:00;;;;;;;1999.90;999.90;;;;;;;3.47;100.00;97628.81;4961202;28;20030;-76
2023/01/15 09:13:27;;;;;;;1999.90;999.90;;;;;;;3.76;100.00;97627.41;4961273;28;20018;-75
2023/01/15 09:15:52;;;;;;;1999.90;999.90;;;;;;;3.86;100.00;97640.19;4962168;28;20023;-76
2023/01/15 09:18:19;;;;;;;1999.90;999.90;;;;;;;4.25;100.00;97641.53;4960810;28;20376;-76
2023/01/15 09:20:47;;;;;;;1999.90;999.90;;;;;;;4.50;100.00;97643.53;4958658;28;20054;-75
2023/01/15 09:23:13;;;;;;;1999.90;999.90;;;;;;;4.28;100.00;97641.81;4938858;28;20046;-75
2023/01/15 09:25:39;;;;;;;1999.90;999.90;;;;;;;4.11;100.00;97630.34;4956541;28;20488;-75
2023/01/15 09:28:04;;;;;;;1999.90;999.90;;;;;;;4.18;100.00;97630.94;4957719;28;20445;-77
2023/01/15 09:30:29;;;;;;;1999.90;999.90;;;;;;;4.10;100.00;97634.13;4958617;28;20501;-76
2023/01/15 09:32:55;;;;;;;1999.90;999.90;;;;;;;4.02;100.00;97626.50;4937722;28;20027;-75
2023/01/15 09:35:21;;;;;;;1999.90;999.90;;;;;;;4.14;100.00;97629.81;4960486;28;20031;-75
2023/01/15 09:37:52;;;;;;;1999.90;999.90;;;;;;;4.18;100.00;97622.81;4956232;28;20055;-76
2023/01/15 09:40:42;;;;;;;1999.90;999.90;;;;;;;4.05;100.00;97604.34;4942778;28;20369;-77
2023/01/15 09:43:29;;;;;;;1999.90;999.90;;;;;;;4.08;100.00;97608.41;4960877;28;20031;-78
2023/01/15 09:46:01;;;;;;;1999.90;999.90;;;;;;;4.11;100.00;97605.16;4966863;28;20025;-77
2023/01/15 09:49:00;;;;;;;1999.90;999.90;;;;;;;4.13;100.00;97606.56;4966854;28;20027;-77
2023/01/15 09:51:38;;;;;;;1999.90;999.90;;;;;;;4.11;100.00;97600.56;4940664;28;20045;-76
2023/01/15 09:54:05;;;;;;;1999.90;999.90;;;;;;;4.15;100.00;97604.41;4958171;28;20586;-75
2023/01/15 09:56:33;;;;;;;1999.90;999.90;;;;;;;4.29;100.00;97600.13;4959028;28;20066;-76
2023/01/15 09:59:04;;;;;;;1999.90;999.90;;;;;;;4.38;100.00;97596.91;4930167;28;20059;-76
2023/01/15 10:01:32;;;;;;;1999.90;999.90;;;;;;;4.25;100.00;97588.22;4961903;28;20035;-78
2023/01/15 10:04:10;;;;;;;1999.90;999.90;;;;;;;4.40;100.00;97589.34;4951856;28;20590;-75
2023/01/15 10:06:54;;;;;;;1999.90;999.90;;;;;;;4.32;100.00;97582.56;4959905;28;20027;-76
2023/01/15 10:09:25;;;;;;;1999.90;999.90;;;;;;;4.44;100.00;97575.03;4939228;29;20536;-76
2023/01/15 10:15:05;;;;;;;1999.90;999.90;;;;;;;4.70;100.00;97570.47;4940166;29;20050;-77
2023/01/15 10:17:41;;;;;;;1999.90;999.90;;;;;;;4.79;100.00;97566.19;4954990;29;20094;-76
2023/01/15 10:20:28;;;;;;;1999.90;999.90;;;;;;;4.80;100.00;97559.66;4956209;29;20034;-75
2023/01/15 10:23:09;;;;;;;1999.90;999.90;;;;;;;4.76;100.00;97551.25;4956182;29;20043;-75
2023/01/15 10:25:48;;;;;;;1999.90;999.90;;;;;;;4.80;100.00;97538.00;4953857;29;20027;-75
2023/01/15 10:28:27;;;;;;;1999.90;999.90;;;;;;;4.95;100.00;97538.00;4935989;29;20407;-77
2023/01/15 10:30:54;;;;;;;1999.90;999.90;;;;;;;4.93;100.00;97534.75;4954048;29;20032;-75
2023/01/15 10:33:52;;;;;;;1999.90;999.90;;;;;;;5.00;100.00;97527.19;4954719;29;20134;-77
2023/01/15 10:36:42;;;;;;;1999.90;999.90;;;;;;;5.24;100.00;97522.84;4933348;29;20035;-76
2023/01/15 10:39:43;;;;;;;1999.90;999.90;;;;;;;5.34;100.00;97522.03;4953789;29;20059;-76
2023/01/15 10:42:33;;;;;;;1999.90;999.90;;;;;;;5.43;100.00;97511.44;4954114;29;20035;-75
2023/01/15 10:45:01;;;;;;;1999.90;999.90;;;;;;;5.53;100.00;97503.28;4954382;29;20488;-77
2023/01/15 10:47:38;;;;;;;1999.90;999.90;;;;;;;5.59;100.00;97499.47;4954199;29;20488;-77
2023/01/15 10:50:15;;;;;;;1999.90;999.90;;;;;;;5.69;100.00;97489.44;4953784;29;20039;-76
2023/01/15 10:52:46;;;;;;;1999.90;999.90;;;;;;;5.69;100.00;97494.03;4953757;29;20058;-75
2023/01/15 10:55:31;;;;;;;1999.90;999.90;;;;;;;5.66;100.00;97494.59;4953844;29;20031;-76
2023/01/15 10:58:05;;;;;;;1999.90;999.90;;;;;;;5.59;100.00;97492.16;4953695;29;20058;-77
2023/01/15 11:00:31;;;;;;;1999.90;999.90;;;;;;;5.57;100.00;97475.38;4938422;29;20031;-75
2023/01/15 11:03:23;;;;;;;1999.90;999.90;;;;;;;5.50;100.00;97485.69;4953508;29;20516;-76
2023/01/15 11:05:49;;;;;;;1999.90;999.90;;;;;;;5.44;100.00;97475.09;4953768;29;20178;-75
2023/01/15 11:08:29;;;;;;;1999.90;999.90;;;;;;;5.34;100.00;97471.34;4954005;29;20385;-79
2023/01/15 11:10:57;;;;;;;1999.90;999.90;;;;;;;5.38;100.00;97477.84;4936900;29;20035;-76
2023/01/15 11:21:41;;;;;;;1999.90;999.90;;;;;;;5.73;100.00;97457.16;4953617;29;20415;-77
2023/01/15 11:24:15;;;;;;;1999.90;999.90;;;;;;;5.73;100.00;97438.16;4953836;29;20031;-75
2023/01/15 11:26:40;;;;;;;1999.90;999.90;;;;;;;5.67;100.00;97428.41;4953459;28;20028;-76
2023/01/15 11:29:15;;;;;;;1999.90;999.90;;;;;;;5.84;100.00;97443.25;4953243;29;20040;-76
2023/01/15 11:31:40;;;;;;;1999.90;999.90;;;;;;;5.75;100.00;97435.97;4953593;29;20034;-76
2023/01/15 11:34:19;;;;;;;1999.90;999.90;;;;;;;5.70;100.00;97439.50;4953283;29;20043;-74
2023/01/15 11:36:45;;;;;;;1999.90;999.90;;;;;;;5.70;100.00;97433.28;4953615;29;20012;-74
2023/01/15 11:39:26;;;;;;;1999.90;999.90;;;;;;;5.71;100.00;97421.31;4953220;29;20038;-77
2023/01/15 11:53:15;;;;;;;1999.90;999.90;;;;;;;5.83;100.00;97406.34;4960355;28;20061;-76
2023/01/15 11:55:51;;;;;;;1999.90;999.90;;;;;;;5.88;100.00;97394.69;4944667;28;20098;-75